sensor_id;sensor_type;location;lat;lon;timestamp;pressure;altitude;pressure_sealevel;temperature;humidity
79481;BME280;68944;48.262;14.208;2023-10-31T00:01:20;96490.28;;;13.96;100.00
79481;BME280;68944;48.262;14.208;2023-10-31T00:03:46;96505.25;;;13.92;100.00
79481;BME280;68944;48.262;14.208;2023-10-31T00:06:11;96508.66;;;13.73;100.00
79481;BME280;68944;48.262;14.208;2023-10-31T00:08:38;96526.94;;;13.61;100.00
79481;BME280;68944;48.262;14.208;2023-10-31T00:11:03;96538.47;;;13.46;100.00
79481;BME280;68944;48.262;14.208;2023-10-31T00:13:29;96548.91;;;13.42;100.00
79481;BME280;68944;48.262;14.208;2023-10-31T00:15:54;96551.63;;;13.37;100.00
79481;BME280;68944;48.262;14.208;2023-10-31T00:18:26;96580.34;;;13.35;100.00
79481;BME280;68944;48.262;14.208;2023-10-31T00:20:51;96578.06;;;13.23;100.00
79481;BME280;68944;48.262;14.208;2023-10-31T00:23:23;96589.03;;;13.16;100.00
79481;BME280;68944;48.262;14.208;2023-10-31T00:25:48;96609.78;;;13.14;100.00
79481;BME280;68944;48.262;14.208;2023-10-31T00:28:14;96616.22;;;13.07;100.00
79481;BME280;68944;48.262;14.208;2023-10-31T00:30:39;96620.56;;;12.98;100.00
79481;BME280;68944;48.262;14.208;2023-10-31T00:33:05;96636.22;;;13.00;100.00
79481;BME280;68944;48.262;14.208;2023-10-31T00:35:31;96651.38;;;12.94;100.00
79481;BME280;68944;48.262;14.208;2023-10-31T00:37:56;96643.97;;;12.91;100.00
79481;BME280;68944;48.262;14.208;2023-10-31T00:40:22;96640.31;;;12.87;100.00
79481;BME280;68944;48.262;14.208;2023-10-31T00:42:47;96664.25;;;12.81;100.00
79481;BME280;68944;48.262;14.208;2023-10-31T00:45:13;96645.13;;;12.79;100.00
79481;BME280;68944;48.262;14.208;2023-10-31T00:47:41;96662.16;;;12.73;100.00
79481;BME280;68944;48.262;14.208;2023-10-31T00:50:07;96668.53;;;12.72;100.00
79481;BME280;68944;48.262;14.208;2023-10-31T00:52:33;96675.50;;;12.62;100.00
79481;BME280;68944;48.262;14.208;2023-10-31T00:54:58;96691.44;;;12.62;100.00
79481;BME280;68944;48.262;14.208;2023-10-31T00:57:24;96682.38;;;12.63;100.00
79481;BME280;68944;48.262;14.208;2023-10-31T00:59:50;96699.41;;;12.62;100.00
79481;BME280;68944;48.262;14.208;2023-10-31T01:02:15;96709.50;;;12.60;100.00
79481;BME280;68944;48.262;14.208;2023-10-31T01:04:41;96730.53;;;12.51;100.00
79481;BME280;68944;48.262;14.208;2023-10-31T01:07:06;96722.59;;;12.36;100.00
79481;BME280;68944;48.262;14.208;2023-10-31T01:09:33;96743.59;;;12.32;100.00
79481;BME280;68944;48.262;14.208;2023-10-31T01:11:59;96746.31;;;12.16;100.00
79481;BME280;68944;48.262;14.208;2023-10-31T01:14:25;96750.81;;;12.05;100.00
79481;BME280;68944;48.262;14.208;2023-10-31T01:16:50;96753.47;;;11.95;100.00
79481;BME280;68944;48.262;14.208;2023-10-31T01:19:15;96756.66;;;11.81;100.00
79481;BME280;68944;48.262;14.208;2023-10-31T01:21:41;96760.13;;;11.77;100.00
79481;BME280;68944;48.262;14.208;2023-10-31T01:24:07;96758.00;;;11.63;100.00
79481;BME280;68944;48.262;14.208;2023-10-31T01:26:33;96761.16;;;11.55;100.00
79481;BME280;68944;48.262;14.208;2023-10-31T01:28:58;96767.53;;;11.54;100.00
79481;BME280;68944;48.262;14.208;2023-10-31T01:31:24;96770.19;;;11.48;100.00
79481;BME280;68944;48.262;14.208;2023-10-31T01:33:49;96769.13;;;11.44;100.00
79481;BME280;68944;48.262;14.208;2023-10-31T01:36:15;96771.50;;;11.35;100.00
79481;BME280;68944;48.262;14.208;2023-10-31T01:38:40;96787.66;;;11.34;100.00
79481;BME280;68944;48.262;14.208;2023-10-31T01:41:06;96808.34;;;11.32;100.00
79481;BME280;68944;48.262;14.208;2023-10-31T01:43:36;96806.75;;;11.31;100.00
79481;BME280;68944;48.262;14.208;2023-10-31T01:46:02;96804.88;;;11.26;100.00
79481;BME280;68944;48.262;14.208;2023-10-31T01:48:32;96812.56;;;11.27;100.00
79481;BME280;68944;48.262;14.208;2023-10-31T01:50:59;96800.38;;;11.21;100.00
79481;BME280;68944;48.262;14.208;2023-10-31T01:53:27;96808.84;;;11.18;100.00
79481;BME280;68944;48.262;14.208;2023-10-31T01:55:55;96803.03;;;11.21;100.00
79481;BME280;68944;48.262;14.208;2023-10-31T01:58:25;96807.25;;;11.17;100.00
79481;BME280;68944;48.262;14.208;2023-10-31T02:00:54;96811.75;;;11.17;100.00
79481;BME280;68944;48.262;14.208;2023-10-31T02:03:20;96815.72;;;11.14;100.00
79481;BME280;68944;48.262;14.208;2023-10-31T02:05:47;96815.72;;;11.14;100.00
79481;BME280;68944;48.262;14.208;2023-10-31T02:08:13;96815.44;;;11.15;100.00
79481;BME280;68944;48.262;14.208;2023-10-31T02:10:38;96824.47;;;11.14;100.00
79481;BME280;68944;48.262;14.208;2023-10-31T02:13:11;96818.38;;;11.14;100.00
79481;BME280;68944;48.262;14.208;2023-10-31T02:15:37;96814.66;;;11.15;100.00
79481;BME280;68944;48.262;14.208;2023-10-31T02:18:03;96808.56;;;11.14;100.00
79481;BME280;68944;48.262;14.208;2023-10-31T02:20:28;96800.84;;;11.13;100.00
79481;BME280;68944;48.262;14.208;2023-10-31T02:22:54;96803.00;;;11.16;100.00
79481;BME280;68944;48.262;14.208;2023-10-31T02:25:19;96798.47;;;11.11;100.00
79481;BME280;68944;48.262;14.208;2023-10-31T02:27:45;96801.66;;;11.13;100.00
79481;BME280;68944;48.262;14.208;2023-10-31T02:30:13;96808.31;;;11.16;100.00
79481;BME280;68944;48.262;14.208;2023-10-31T02:32:40;96809.91;;;11.22;100.00
79481;BME280;68944;48.262;14.208;2023-10-31T02:35:06;96808.84;;;11.18;100.00
79481;BME280;68944;48.262;14.208;2023-10-31T02:37:32;96825.28;;;11.15;100.00
79481;BME280;68944;48.262;14.208;2023-10-31T02:39:57;96827.34;;;11.13;100.00
79481;BME280;68944;48.262;14.208;2023-10-31T02:42:24;96821.28;;;11.12;100.00
79481;BME280;68944;48.262;14.208;2023-10-31T02:44:50;96835.88;;;11.15;100.00
79481;BME280;68944;48.262;14.208;2023-10-31T02:47:16;96837.75;;;11.20;100.00
79481;BME280;68944;48.262;14.208;2023-10-31T02:49:41;96846.72;;;11.13;100.00
79481;BME280;68944;48.262;14.208;2023-10-31T02:52:07;96838.00;;;11.18;100.00
79481;BME280;68944;48.262;14.208;2023-10-31T02:54:32;96840.13;;;11.21;100.00
79481;BME280;68944;48.262;14.208;2023-10-31T02:56:58;96832.97;;;11.22;100.00
79481;BME280;68944;48.262;14.208;2023-10-31T02:59:23;96830.03;;;11.18;100.00
79481;BME280;68944;48.262;14.208;2023-10-31T03:01:49;96836.41;;;11.17;100.00
79481;BME280;68944;48.262;14.208;2023-10-31T03:04:15;96828.97;;;11.14;100.00
79481;BME280;68944;48.262;14.208;2023-10-31T03:06:41;96837.97;;;11.13;100.00
79481;BME280;68944;48.262;14.208;2023-10-31T03:09:07;96839.84;;;11.12;100.00
79481;BME280;68944;48.262;14.208;2023-10-31T03:11:33;96836.63;;;11.05;100.00
79481;BME280;68944;48.262;14.208;2023-10-31T03:13:58;96834.50;;;11.02;100.00
79481;BME280;68944;48.262;14.208;2023-10-31T03:16:24;96852.78;;;11.03;100.00
79481;BME280;68944;48.262;14.208;2023-10-31T03:18:50;96853.31;;;11.00;100.00
79481;BME280;68944;48.262;14.208;2023-10-31T03:21:16;96865.75;;;11.00;100.00
79481;BME280;68944;48.262;14.208;2023-10-31T03:23:46;96858.88;;;10.99;100.00
79481;BME280;68944;48.262;14.208;2023-10-31T03:26:13;96850.91;;;10.99;100.00
79481;BME280;68944;48.262;14.208;2023-10-31T03:28:39;96864.19;;;10.99;100.00
79481;BME280;68944;48.262;14.208;2023-10-31T03:31:04;96870.25;;;10.99;100.00
79481;BME280;68944;48.262;14.208;2023-10-31T03:33:30;96877.38;;;10.94;100.00
79481;BME280;68944;48.262;14.208;2023-10-31T03:35:56;96885.06;;;10.95;100.00
79481;BME280;68944;48.262;14.208;2023-10-31T03:38:21;96868.13;;;10.96;100.00
79481;BME280;68944;48.262;14.208;2023-10-31T03:40:47;96874.97;;;10.92;100.00
79481;BME280;68944;48.262;14.208;2023-10-31T03:43:12;96884.50;;;10.88;100.00
79481;BME280;68944;48.262;14.208;2023-10-31T03:45:38;96885.31;;;10.88;100.00
79481;BME280;68944;48.262;14.208;2023-10-31T03:48:04;96899.06;;;10.85;100.00
79481;BME280;68944;48.262;14.208;2023-10-31T03:50:30;96907.22;;;10.78;100.00
79481;BME280;68944;48.262;14.208;2023-10-31T03:52:55;96909.34;;;10.76;100.00
79481;BME280;68944;48.262;14.208;2023-10-31T03:55:21;96933.16;;;10.71;100.00
79481;BME280;68944;48.262;14.208;2023-10-31T03:57:46;96911.41;;;10.64;100.00
79481;BME280;68944;48.262;14.208;2023-10-31T04:00:12;96914.53;;;10.61;100.00
79481;BME280;68944;48.262;14.208;2023-10-31T04:02:41;96928.28;;;10.52;100.00
79481;BME280;68944;48.262;14.208;2023-10-31T04:05:07;96935.28;;;10.41;100.00
79481;BME280;68944;48.262;14.208;2023-10-31T04:07:34;96944.25;;;10.35;100.00
79481;BME280;68944;48.262;14.208;2023-10-31T04:10:00;96946.00;;;10.24;100.00
79481;BME280;68944;48.262;14.208;2023-10-31T04:12:26;96957.63;;;10.18;100.00
79481;BME280;68944;48.262;14.208;2023-10-31T04:14:51;96957.56;;;10.12;100.00
79481;BME280;68944;48.262;14.208;2023-10-31T04:17:17;96963.53;;;10.02;100.00
79481;BME280;68944;48.262;14.208;2023-10-31T04:19:42;96973.88;;;10.04;100.00
79481;BME280;68944;48.262;14.208;2023-10-31T04:22:08;96967.25;;;10.01;100.00
79481;BME280;68944;48.262;14.208;2023-10-31T04:24:33;96984.97;;;10.01;100.00
79481;BME280;68944;48.262;14.208;2023-10-31T04:26:59;96981.50;;;10.00;100.00
79481;BME280;68944;48.262;14.208;2023-10-31T04:29:24;96981.06;;;10.09;100.00
79481;BME280;68944;48.262;14.208;2023-10-31T04:31:50;96981.25;;;10.02;100.00
79481;BME280;68944;48.262;14.208;2023-10-31T04:34:15;96983.88;;;9.97;100.00
79481;BME280;68944;48.262;14.208;2023-10-31T04:36:41;97001.66;;;10.01;100.00
79481;BME280;68944;48.262;14.208;2023-10-31T04:39:07;96995.56;;;10.01;100.00
79481;BME280;68944;48.262;14.208;2023-10-31T04:41:32;96976.34;;;9.88;100.00
79481;BME280;68944;48.262;14.208;2023-10-31T04:43:58;96970.81;;;9.90;100.00
79481;BME280;68944;48.262;14.208;2023-10-31T04:46:26;96982.50;;;9.94;100.00
79481;BME280;68944;48.262;14.208;2023-10-31T04:48:53;96993.31;;;9.93;100.00
79481;BME280;68944;48.262;14.208;2023-10-31T04:51:19;96998.13;;;9.96;100.00
79481;BME280;68944;48.262;14.208;2023-10-31T04:53:44;97001.78;;;9.89;100.00
79481;BME280;68944;48.262;14.208;2023-10-31T04:56:14;97008.41;;;9.92;100.00
79481;BME280;68944;48.262;14.208;2023-10-31T04:58:42;97004.53;;;10.00;100.00
79481;BME280;68944;48.262;14.208;2023-10-31T05:01:09;97016.03;;;9.88;100.00
79481;BME280;68944;48.262;14.208;2023-10-31T05:03:35;97006.25;;;9.89;100.00
79481;BME280;68944;48.262;14.208;2023-10-31T05:06:00;97008.22;;;9.76;100.00
79481;BME280;68944;48.262;14.208;2023-10-31T05:08:26;97011.38;;;9.73;100.00
79481;BME280;68944;48.262;14.208;2023-10-31T05:10:51;97024.34;;;9.75;100.00
79481;BME280;68944;48.262;14.208;2023-10-31T05:13:17;97032.28;;;9.75;100.00
79481;BME280;68944;48.262;14.208;2023-10-31T05:15:42;97039.00;;;9.83;100.00
79481;BME280;68944;48.262;14.208;2023-10-31T05:18:08;97047.72;;;9.83;100.00
79481;BME280;68944;48.262;14.208;2023-10-31T05:20:34;97048.72;;;9.77;100.00
79481;BME280;68944;48.262;14.208;2023-10-31T05:22:59;97049.81;;;9.81;100.00
79481;BME280;68944;48.262;14.208;2023-10-31T05:25:25;97047.69;;;9.78;100.00
79481;BME280;68944;48.262;14.208;2023-10-31T05:27:50;97043.75;;;9.81;100.00
79481;BME280;68944;48.262;14.208;2023-10-31T05:30:17;97052.53;;;9.86;100.00
79481;BME280;68944;48.262;14.208;2023-10-31T05:32:43;97055.09;;;9.81;100.00
79481;BME280;68944;48.262;14.208;2023-10-31T05:35:10;97058.28;;;9.83;100.00
79481;BME280;68944;48.262;14.208;2023-10-31T05:37:35;97071.03;;;9.86;100.00
79481;BME280;68944;48.262;14.208;2023-10-31T05:40:01;97068.31;;;9.81;100.00
79481;BME280;68944;48.262;14.208;2023-10-31T05:42:27;97080.50;;;9.82;100.00
79481;BME280;68944;48.262;14.208;2023-10-31T05:44:54;97078.28;;;9.74;100.00
79481;BME280;68944;48.262;14.208;2023-10-31T05:47:19;97064.31;;;9.78;100.00
79481;BME280;68944;48.262;14.208;2023-10-31T05:49:46;97072.41;;;9.66;100.00
79481;BME280;68944;48.262;14.208;2023-10-31T05:52:11;97073.31;;;9.77;100.00
79481;BME280;68944;48.262;14.208;2023-10-31T05:54:37;97069.31;;;9.75;100.00
79481;BME280;68944;48.262;14.208;2023-10-31T05:57:03;97077.81;;;9.77;100.00
79481;BME280;68944;48.262;14.208;2023-10-31T05:59:28;97083.81;;;9.72;100.00
79481;BME280;68944;48.262;14.208;2023-10-31T06:01:54;97090.66;;;9.68;100.00
79481;BME280;68944;48.262;14.208;2023-10-31T06:04:19;97097.41;;;9.59;100.00
79481;BME280;68944;48.262;14.208;2023-10-31T06:06:46;97093.88;;;9.53;100.00
79481;BME280;68944;48.262;14.208;2023-10-31T06:09:11;97093.41;;;9.56;100.00
79481;BME280;68944;48.262;14.208;2023-10-31T06:11:41;97105.03;;;9.55;100.00
79481;BME280;68944;48.262;14.208;2023-10-31T06:14:07;97109.34;;;9.61;100.00
79481;BME280;68944;48.262;14.208;2023-10-31T06:16:40;97121.91;;;9.54;100.00
79481;BME280;68944;48.262;14.208;2023-10-31T06:19:05;97117.09;;;9.51;100.00
79481;BME280;68944;48.262;14.208;2023-10-31T06:21:31;97113.44;;;9.52;100.00
79481;BME280;68944;48.262;14.208;2023-10-31T06:23:56;97116.63;;;9.54;100.00
79481;BME280;68944;48.262;14.208;2023-10-31T06:26:22;97129.13;;;9.59;100.00
79481;BME280;68944;48.262;14.208;2023-10-31T06:28:47;97133.22;;;9.66;100.00
79481;BME280;68944;48.262;14.208;2023-10-31T06:31:12;97137.53;;;9.73;100.00
79481;BME280;68944;48.262;14.208;2023-10-31T06:33:38;97148.09;;;9.73;100.00
79481;BME280;68944;48.262;14.208;2023-10-31T06:36:04;97151.66;;;9.61;100.00
79481;BME280;68944;48.262;14.208;2023-10-31T06:38:30;97147.78;;;9.69;100.00
79481;BME280;68944;48.262;14.208;2023-10-31T06:40:55;97141.94;;;9.67;100.00
79481;BME280;68944;48.262;14.208;2023-10-31T06:43:22;97134.31;;;9.71;100.00
79481;BME280;68944;48.262;14.208;2023-10-31T06:45:47;97141.53;;;9.75;100.00
79481;BME280;68944;48.262;14.208;2023-10-31T06:48:13;97161.41;;;9.78;100.00
79481;BME280;68944;48.262;14.208;2023-10-31T06:50:38;97172.75;;;9.96;100.00
79481;BME280;68944;48.262;14.208;2023-10-31T06:53:04;97165.44;;;10.03;100.00
79481;BME280;68944;48.262;14.208;2023-10-31T06:55:29;97162.78;;;10.03;100.00
79481;BME280;68944;48.262;14.208;2023-10-31T06:57:55;97149.50;;;9.98;100.00
79481;BME280;68944;48.262;14.208;2023-10-31T07:00:20;97152.22;;;10.03;100.00
79481;BME280;68944;48.262;14.208;2023-10-31T07:02:46;97127.03;;;10.00;100.00
79481;BME280;68944;48.262;14.208;2023-10-31T07:05:13;97130.06;;;10.09;100.00
79481;BME280;68944;48.262;14.208;2023-10-31T07:07:39;97127.00;;;10.18;100.00
79481;BME280;68944;48.262;14.208;2023-10-31T07:10:05;97134.69;;;10.19;100.00
79481;BME280;68944;48.262;14.208;2023-10-31T07:12:31;97131.78;;;10.21;100.00
79481;BME280;68944;48.262;14.208;2023-10-31T07:14:56;97141.16;;;10.29;100.00
79481;BME280;68944;48.262;14.208;2023-10-31T07:17:24;97147.25;;;10.29;100.00
79481;BME280;68944;48.262;14.208;2023-10-31T07:19:50;97165.34;;;10.38;100.00
79481;BME280;68944;48.262;14.208;2023-10-31T07:22:16;97172.19;;;10.33;100.00
79481;BME280;68944;48.262;14.208;2023-10-31T07:24:41;97170.38;;;10.39;100.00
79481;BME280;68944;48.262;14.208;2023-10-31T07:27:08;97167.72;;;10.39;100.00
79481;BME280;68944;48.262;14.208;2023-10-31T07:29:34;97181.16;;;10.32;100.00
79481;BME280;68944;48.262;14.208;2023-10-31T07:32:00;97195.25;;;10.38;100.00
79481;BME280;68944;48.262;14.208;2023-10-31T07:34:25;97195.00;;;10.40;100.00
79481;BME280;68944;48.262;14.208;2023-10-31T07:36:51;97206.63;;;10.39;100.00
79481;BME280;68944;48.262;14.208;2023-10-31T07:39:16;97211.78;;;10.45;100.00
79481;BME280;68944;48.262;14.208;2023-10-31T07:41:42;97211.19;;;10.43;100.00
79481;BME280;68944;48.262;14.208;2023-10-31T07:44:09;97219.66;;;10.40;100.00
79481;BME280;68944;48.262;14.208;2023-10-31T07:46:35;97224.69;;;10.42;100.00
79481;BME280;68944;48.262;14.208;2023-10-31T07:49:00;97224.31;;;10.33;100.00
79481;BME280;68944;48.262;14.208;2023-10-31T07:51:26;97216.38;;;10.33;100.00
79481;BME280;68944;48.262;14.208;2023-10-31T07:53:51;97215.09;;;10.35;100.00
79481;BME280;68944;48.262;14.208;2023-10-31T07:56:18;97204.75;;;10.34;100.00
79481;BME280;68944;48.262;14.208;2023-10-31T07:58:48;97204.41;;;10.30;100.00
79481;BME280;68944;48.262;14.208;2023-10-31T08:01:16;97207.41;;;10.34;100.00
79481;BME280;68944;48.262;14.208;2023-10-31T08:03:42;97208.13;;;10.29;100.00
79481;BME280;68944;48.262;14.208;2023-10-31T08:06:07;97206.44;;;10.23;100.00
79481;BME280;68944;48.262;14.208;2023-10-31T08:08:33;97217.59;;;10.25;100.00
79481;BME280;68944;48.262;14.208;2023-10-31T08:10:59;97228.69;;;10.22;100.00
79481;BME280;68944;48.262;14.208;2023-10-31T08:13:25;97230.59;;;10.27;100.00
79481;BME280;68944;48.262;14.208;2023-10-31T08:15:51;97225.78;;;10.23;100.00
79481;BME280;68944;48.262;14.208;2023-10-31T08:18:16;97237.41;;;10.22;100.00
79481;BME280;68944;48.262;14.208;2023-10-31T08:20:41;97225.47;;;10.20;100.00
79481;BME280;68944;48.262;14.208;2023-10-31T08:23:08;97233.09;;;10.16;100.00
79481;BME280;68944;48.262;14.208;2023-10-31T08:25:34;97218.28;;;10.15;100.00
79481;BME280;68944;48.262;14.208;2023-10-31T08:28:00;97224.34;;;10.16;100.00
79481;BME280;68944;48.262;14.208;2023-10-31T08:30:26;97219.03;;;10.16;100.00
79481;BME280;68944;48.262;14.208;2023-10-31T08:32:51;97223.31;;;10.17;100.00
79481;BME280;68944;48.262;14.208;2023-10-31T08:35:17;97224.84;;;10.12;100.00
79481;BME280;68944;48.262;14.208;2023-10-31T08:37:42;97229.81;;;10.09;100.00
79481;BME280;68944;48.262;14.208;2023-10-31T08:40:08;97233.75;;;10.06;100.00
79481;BME280;68944;48.262;14.208;2023-10-31T08:42:35;97230.63;;;10.09;100.00
79481;BME280;68944;48.262;14.208;2023-10-31T08:45:00;97229.50;;;10.05;100.00
79481;BME280;68944;48.262;14.208;2023-10-31T08:47:26;97226.59;;;10.07;100.00
79481;BME280;68944;48.262;14.208;2023-10-31T08:49:51;97214.25;;;10.12;100.00
79481;BME280;68944;48.262;14.208;2023-10-31T08:52:17;97201.31;;;9.94;100.00
79481;BME280;68944;48.262;14.208;2023-10-31T08:54:43;97195.38;;;9.86;100.00
79481;BME280;68944;48.262;14.208;2023-10-31T08:57:08;97210.03;;;9.94;100.00
79481;BME280;68944;48.262;14.208;2023-10-31T08:59:34;97217.47;;;9.97;100.00
79481;BME280;68944;48.262;14.208;2023-10-31T09:02:01;97227.44;;;9.90;100.00
79481;BME280;68944;48.262;14.208;2023-10-31T09:04:26;97234.16;;;9.98;100.00
79481;BME280;68944;48.262;14.208;2023-10-31T09:06:52;97246.38;;;9.99;100.00
79481;BME280;68944;48.262;14.208;2023-10-31T09:09:17;97251.22;;;9.90;100.00
79481;BME280;68944;48.262;14.208;2023-10-31T09:11:43;97249.91;;;9.87;100.00
79481;BME280;68944;48.262;14.208;2023-10-31T09:14:09;97260.13;;;9.84;100.00
79481;BME280;68944;48.262;14.208;2023-10-31T09:16:35;97264.06;;;9.81;100.00
79481;BME280;68944;48.262;14.208;2023-10-31T09:19:00;97271.94;;;9.76;100.00
79481;BME280;68944;48.262;14.208;2023-10-31T09:21:26;97268.41;;;9.70;100.00
79481;BME280;68944;48.262;14.208;2023-10-31T09:23:51;97276.75;;;9.62;100.00
79481;BME280;68944;48.262;14.208;2023-10-31T09:26:17;97282.59;;;9.64;100.00
79481;BME280;68944;48.262;14.208;2023-10-31T09:28:43;97274.31;;;9.60;100.00
79481;BME280;68944;48.262;14.208;2023-10-31T09:31:16;97281.78;;;9.63;100.00
79481;BME280;68944;48.262;14.208;2023-10-31T09:33:42;97276.75;;;9.62;100.00
79481;BME280;68944;48.262;14.208;2023-10-31T09:36:08;97284.91;;;9.60;100.00
79481;BME280;68944;48.262;14.208;2023-10-31T09:38:33;97303.91;;;9.57;100.00
79481;BME280;68944;48.262;14.208;2023-10-31T09:40:59;97300.28;;;9.63;100.00
79481;BME280;68944;48.262;14.208;2023-10-31T09:43:25;97322.00;;;9.65;100.00
79481;BME280;68944;48.262;14.208;2023-10-31T09:45:51;97339.97;;;9.63;100.00
79481;BME280;68944;48.262;14.208;2023-10-31T09:48:19;97352.19;;;9.52;100.00
79481;BME280;68944;48.262;14.208;2023-10-31T09:50:46;97363.81;;;9.51;100.00
79481;BME280;68944;48.262;14.208;2023-10-31T09:53:14;97376.31;;;9.56;100.00
79481;BME280;68944;48.262;14.208;2023-10-31T09:55:41;97379.22;;;9.54;100.00
79481;BME280;68944;48.262;14.208;2023-10-31T09:58:06;97378.66;;;9.52;100.00
79481;BME280;68944;48.262;14.208;2023-10-31T10:00:32;97393.84;;;9.45;100.00
79481;BME280;68944;48.262;14.208;2023-10-31T10:02:58;97410.72;;;9.44;100.00
79481;BME280;68944;48.262;14.208;2023-10-31T10:05:25;97408.72;;;9.34;100.00
79481;BME280;68944;48.262;14.208;2023-10-31T10:07:50;97409.03;;;9.38;100.00
79481;BME280;68944;48.262;14.208;2023-10-31T10:10:17;97390.19;;;9.34;100.00
79481;BME280;68944;48.262;14.208;2023-10-31T10:12:42;97371.38;;;9.18;100.00
79481;BME280;68944;48.262;14.208;2023-10-31T10:15:10;97375.63;;;9.19;100.00
79481;BME280;68944;48.262;14.208;2023-10-31T10:17:37;97351.19;;;9.12;100.00
79481;BME280;68944;48.262;14.208;2023-10-31T10:20:09;97327.72;;;9.16;100.00
79481;BME280;68944;48.262;14.208;2023-10-31T10:22:39;97314.19;;;9.12;100.00
79481;BME280;68944;48.262;14.208;2023-10-31T10:25:06;97299.94;;;9.13;100.00
79481;BME280;68944;48.262;14.208;2023-10-31T10:27:32;97306.22;;;9.24;100.00
79481;BME280;68944;48.262;14.208;2023-10-31T10:29:58;97301.25;;;9.28;100.00
79481;BME280;68944;48.262;14.208;2023-10-31T10:32:23;97304.59;;;9.23;100.00
79481;BME280;68944;48.262;14.208;2023-10-31T10:34:49;97311.03;;;9.27;100.00
79481;BME280;68944;48.262;14.208;2023-10-31T10:37:16;97310.44;;;9.25;100.00
79481;BME280;68944;48.262;14.208;2023-10-31T10:39:47;97320.81;;;9.27;100.00
79481;BME280;68944;48.262;14.208;2023-10-31T10:42:17;97325.31;;;9.14;100.00
79481;BME280;68944;48.262;14.208;2023-10-31T10:44:44;97347.13;;;9.21;100.00
79481;BME280;68944;48.262;14.208;2023-10-31T10:47:12;97361.28;;;9.15;100.00
79481;BME280;68944;48.262;14.208;2023-10-31T10:49:41;97372.66;;;9.16;100.00
79481;BME280;68944;48.262;14.208;2023-10-31T10:52:17;97366.34;;;9.17;100.00
79481;BME280;68944;48.262;14.208;2023-10-31T10:54:53;97372.66;;;9.16;100.00
79481;BME280;68944;48.262;14.208;2023-10-31T10:57:48;97370.13;;;9.09;100.00
79481;BME280;68944;48.262;14.208;2023-10-31T11:00:16;97369.44;;;9.14;100.00
79481;BME280;68944;48.262;14.208;2023-10-31T11:02:42;97368.66;;;9.13;100.00
79481;BME280;68944;48.262;14.208;2023-10-31T11:05:09;97357.44;;;8.94;100.00
79481;BME280;68944;48.262;14.208;2023-10-31T11:07:37;97359.94;;;8.88;100.00
79481;BME280;68944;48.262;14.208;2023-10-31T11:10:03;97354.34;;;8.85;100.00
79481;BME280;68944;48.262;14.208;2023-10-31T11:12:31;97354.34;;;8.85;100.00
79481;BME280;68944;48.262;14.208;2023-10-31T11:14:58;97366.28;;;8.87;100.00
79481;BME280;68944;48.262;14.208;2023-10-31T11:17:26;97364.41;;;9.00;100.00
79481;BME280;68944;48.262;14.208;2023-10-31T11:19:52;97353.28;;;8.98;100.00
79481;BME280;68944;48.262;14.208;2023-10-31T11:22:19;97355.09;;;8.97;100.00
79481;BME280;68944;48.262;14.208;2023-10-31T11:24:44;97347.09;;;8.92;100.00
79481;BME280;68944;48.262;14.208;2023-10-31T11:27:10;97355.09;;;9.09;100.00
79481;BME280;68944;48.262;14.208;2023-10-31T11:29:36;97359.09;;;9.12;100.00
79481;BME280;68944;48.262;14.208;2023-10-31T11:32:02;97367.03;;;9.12;100.00
79481;BME280;68944;48.262;14.208;2023-10-31T11:34:30;97366.00;;;9.13;100.00
79481;BME280;68944;48.262;14.208;2023-10-31T11:37:27;97369.44;;;9.14;100.00
79481;BME280;68944;48.262;14.208;2023-10-31T11:42:42;97370.50;;;9.13;100.00
79481;BME280;68944;48.262;14.208;2023-10-31T11:45:08;97377.94;;;9.16;100.00
79481;BME280;68944;48.262;14.208;2023-10-31T11:47:50;97369.69;;;9.12;100.00
79481;BME280;68944;48.262;14.208;2023-10-31T11:50:16;97365.19;;;9.13;100.00
79481;BME280;68944;48.262;14.208;2023-10-31T11:52:42;97366.16;;;9.06;100.00
79481;BME280;68944;48.262;14.208;2023-10-31T11:55:12;97370.13;;;9.09;100.00
79481;BME280;68944;48.262;14.208;2023-10-31T11:57:38;97362.13;;;9.04;100.00
79481;BME280;68944;48.262;14.208;2023-10-31T12:00:05;97365.34;;;8.94;100.00
79481;BME280;68944;48.262;14.208;2023-10-31T12:02:38;97357.75;;;8.97;100.00
79481;BME280;68944;48.262;14.208;2023-10-31T12:05:09;97362.81;;;8.99;100.00
79481;BME280;68944;48.262;14.208;2023-10-31T12:07:45;97357.53;;;9.11;100.00
79481;BME280;68944;48.262;14.208;2023-10-31T12:10:13;97344.63;;;9.15;100.00
79481;BME280;68944;48.262;14.208;2023-10-31T12:12:38;97352.56;;;9.15;100.00
79481;BME280;68944;48.262;14.208;2023-10-31T12:15:08;97342.69;;;9.10;100.00
79481;BME280;68944;48.262;14.208;2023-10-31T12:17:35;97339.34;;;9.15;100.00
79481;BME280;68944;48.262;14.208;2023-10-31T12:20:05;97343.47;;;9.23;100.00
79481;BME280;68944;48.262;14.208;2023-10-31T12:22:30;97343.31;;;9.29;100.00
79481;BME280;68944;48.262;14.208;2023-10-31T12:25:10;97336.84;;;9.37;100.00
79481;BME280;68944;48.262;14.208;2023-10-31T12:27:46;97343.66;;;9.33;100.00
79481;BME280;68944;48.262;14.208;2023-10-31T12:30:13;97341.56;;;9.35;100.00
79481;BME280;68944;48.262;14.208;2023-10-31T12:32:42;97343.75;;;9.38;100.00
79481;BME280;68944;48.262;14.208;2023-10-31T12:35:11;97350.63;;;9.39;100.00
79481;BME280;68944;48.262;14.208;2023-10-31T12:37:48;97335.72;;;9.33;100.00
79481;BME280;68944;48.262;14.208;2023-10-31T12:40:18;97356.41;;;9.36;100.00
79481;BME280;68944;48.262;14.208;2023-10-31T12:42:46;97348.94;;;9.33;100.00
79481;BME280;68944;48.262;14.208;2023-10-31T12:45:12;97354.22;;;9.33;100.00